Time;durP1;ratioP1;P1;durP2;ratioP2;P2;SDS_P1;SDS_P2;PMS_P1;PMS_P2;Temp;Humidity;BMP_temperature;BMP_pressure;BME280_temperature;BME280_humidity;BME280_pressure;Samples;Min_cycle;Max_cycle;Signal;HPM_P1;HPM_P2
2022/10/03 00:00:19;;;;;;;14.90;5.40;;;;;;;10.41;74.26;98456.14;106036;1274;99209;-67
2022/10/03 00:03:32;;;;;;;11.50;4.90;;;;;;;10.40;74.47;98459.06;106011;1276;115750;-67
2022/10/03 00:06:43;;;;;;;14.70;5.10;;;;;;;10.40;74.59;98457.80;106033;1274;98009;-67
2022/10/03 00:09:26;;;;;;;10.60;4.50;;;;;;;10.39;74.57;98454.84;105986;1274;107815;-66
2022/10/03 00:12:12;;;;;;;15.30;5.80;;;;;;;10.40;74.73;98450.34;106036;1274;98850;-65
2022/10/03 00:15:04;;;;;;;10.50;5.10;;;;;;;10.40;74.58;98452.67;105976;1274;96669;-64
2022/10/03 00:17:52;;;;;;;15.00;5.30;;;;;;;10.39;74.63;98449.55;105977;1274;113153;-66
2022/10/03 00:20:48;;;;;;;11.50;5.00;;;;;;;10.39;74.60;98450.77;106010;1274;96546;-67
2022/10/03 00:23:39;;;;;;;14.90;5.30;;;;;;;10.38;74.64;98450.65;106093;1274;107784;-64
2022/10/03 00:26:36;;;;;;;14.10;5.60;;;;;;;10.38;74.73;98454.25;106063;1274;99345;-66
2022/10/03 00:29:41;;;;;;;14.00;5.40;;;;;;;10.36;74.66;98446.59;106084;1274;99325;-65
2022/10/03 00:32:21;;;;;;;16.00;6.00;;;;;;;10.34;74.71;98446.55;105973;1275;112232;-67
2022/10/03 00:35:11;;;;;;;13.10;6.00;;;;;;;10.34;74.68;98438.45;106003;1274;99329;-65
2022/10/03 00:38:10;;;;;;;14.40;5.50;;;;;;;10.33;74.88;98441.86;105946;1277;108501;-65
2022/10/03 00:41:11;;;;;;;16.50;5.70;;;;;;;10.31;74.87;98440.59;105981;1274;96625;-64
2022/10/03 00:43:58;;;;;;;14.60;5.60;;;;;;;10.29;74.77;98438.40;105975;1274;99336;-65
2022/10/03 00:46:55;;;;;;;13.10;5.60;;;;;;;10.29;74.88;98442.73;105952;1274;113463;-64
2022/10/03 00:49:50;;;;;;;15.10;5.60;;;;;;;10.27;74.95;98439.14;105986;1277;99347;-66
2022/10/03 00:52:50;;;;;;;15.00;6.00;;;;;;;10.26;75.01;98444.52;105968;1274;108290;-65
2022/10/03 00:55:34;;;;;;;16.00;5.40;;;;;;;10.25;75.00;98442.85;106052;1274;96532;-65
2022/10/03 00:58:29;;;;;;;14.50;5.90;;;;;;;10.25;75.01;98444.58;106123;1274;99352;-65
2022/10/03 01:01:34;;;;;;;16.20;6.50;;;;;;;10.26;75.05;98445.23;105959;1278;113391;-65
2022/10/03 01:04:25;;;;;;;17.50;5.80;;;;;;;10.27;75.11;98447.31;106058;1274;99510;-66
2022/10/03 01:07:13;;;;;;;13.70;5.70;;;;;;;10.26;74.86;98442.10;106058;1274;107800;-64
2022/10/03 01:10:13;;;;;;;17.20;6.50;;;;;;;10.25;75.00;98444.80;106041;1274;99319;-66
2022/10/03 01:12:56;;;;;;;18.60;6.60;;;;;;;10.25;75.01;98442.33;106013;1274;99339;-66
2022/10/03 01:15:29;;;;;;;15.20;6.00;;;;;;;10.26;75.09;98439.98;106056;1275;113861;-65
2022/10/03 01:18:08;;;;;;;;;;;;;;;10.28;75.08;98441.90;106087;1274;99224;-67
2022/10/03 01:21:07;;;;;;;17.40;6.20;;;;;;;10.28;75.19;98437.98;106119;1274;108457;-66
2022/10/03 01:23:43;;;;;;;13.30;5.70;;;;;;;10.31;75.20;98435.69;106132;1274;99290;-64
2022/10/03 01:26:14;;;;;;;14.50;6.50;;;;;;;10.32;75.17;98436.33;106039;1274;99213;-65
2022/10/03 01:32:21;;;;;;;11.60;4.90;;;;;;;10.30;75.28;98434.86;106102;1274;99244;-65
2022/10/03 01:34:55;;;;;;;11.30;5.30;;;;;;;10.29;75.16;98433.10;106082;1274;108569;-64
2022/10/03 01:37:39;;;;;;;13.40;5.80;;;;;;;10.27;75.24;98436.67;106099;1274;99320;-65
2022/10/03 01:40:30;;;;;;;18.50;6.20;;;;;;;10.23;75.14;98441.90;106045;1274;99284;-65
2022/10/03 01:43:18;;;;;;;15.10;6.90;;;;;;;10.21;75.35;98440.34;106096;1274;113173;-64
2022/10/03 01:46:05;;;;;;;14.00;5.50;;;;;;;10.19;75.41;98440.67;106087;1274;99049;-65
2022/10/03 01:48:48;;;;;;;17.10;5.90;;;;;;;10.19;75.45;98444.94;106091;1274;109351;-66
2022/10/03 01:51:30;;;;;;;17.50;6.30;;;;;;;10.17;75.35;98445.30;106095;1274;99330;-65
2022/10/03 01:54:06;;;;;;;15.90;6.00;;;;;;;10.12;75.30;98440.52;106098;1274;99246;-64
2022/10/03 01:56:59;;;;;;;16.20;5.00;;;;;;;10.10;75.35;98441.75;106063;1274;113865;-64
2022/10/03 01:59:52;;;;;;;15.00;5.10;;;;;;;10.06;75.25;98448.78;106096;1274;99320;-65
2022/10/03 02:02:53;;;;;;;12.80;4.80;;;;;;;10.01;75.34;98439.64;106043;1274;108510;-65
2022/10/03 02:05:42;;;;;;;11.80;4.40;;;;;;;10.00;75.43;98433.75;106000;1275;99345;-63
2022/10/03 02:08:15;;;;;;;14.20;4.60;;;;;;;9.98;75.43;98431.73;106119;1274;100023;-62
2022/10/03 02:11:07;;;;;;;15.70;4.60;;;;;;;9.95;75.51;98432.11;106103;1274;113411;-65
2022/10/03 02:13:47;;;;;;;14.70;4.70;;;;;;;9.92;75.47;98437.87;106013;1274;98998;-63
2022/10/03 02:16:40;;;;;;;17.70;4.70;;;;;;;9.92;75.39;98436.14;106068;1274;108363;-66
2022/10/03 02:19:14;;;;;;;11.10;4.50;;;;;;;9.92;75.48;98443.35;105962;1274;96554;-61
2022/10/03 02:21:49;;;;;;;;;;;;;;;9.91;75.50;98442.41;106118;1274;99323;-64
2022/10/03 02:24:40;;;;;;;11.60;4.50;;;;;;;9.89;75.58;98444.35;106124;1274;113406;-65
2022/10/03 02:27:49;;;;;;;17.90;5.50;;;;;;;9.89;75.62;98443.96;106081;1274;99320;-63
2022/10/03 02:30:39;;;;;;;14.50;5.20;;;;;;;9.91;75.69;98431.63;105998;1274;106354;-64
2022/10/03 02:33:38;;;;;;;17.70;5.50;;;;;;;9.92;75.69;98429.92;106015;1274;99868;-65
2022/10/03 02:36:06;;;;;;;13.70;4.80;;;;;;;9.93;75.72;98437.65;106133;1274;99212;-66
2022/10/03 02:39:08;;;;;;;13.40;4.90;;;;;;;9.93;75.72;98438.64;106084;1274;113401;-66
2022/10/03 02:42:24;;;;;;;10.70;4.60;;;;;;;9.93;75.73;98434.61;105997;1274;96626;-66
2022/10/03 02:45:21;;;;;;;12.70;5.00;;;;;;;9.94;75.74;98431.57;105989;1274;108372;-64
2022/10/03 02:48:23;;;;;;;13.80;4.50;;;;;;;9.94;75.73;98429.26;106125;1274;99321;-65
2022/10/03 02:51:22;;;;;;;15.40;4.30;;;;;;;9.96;75.74;98429.27;105988;1276;99938;-66
2022/10/03 02:54:23;;;;;;;12.50;4.20;;;;;;;9.96;75.80;98426.02;105983;1274;112303;-65
2022/10/03 02:57:10;;;;;;;12.80;4.80;;;;;;;9.98;75.91;98426.39;105984;1274;99262;-65
2022/10/03 02:59:37;;;;;;;15.70;5.30;;;;;;;10.00;75.84;98424.14;106001;1275;108377;-65
2022/10/03 03:02:26;;;;;;;10.60;4.40;;;;;;;10.02;75.85;98419.23;106049;1274;98667;-64
2022/10/03 03:05:17;;;;;;;12.40;4.20;;;;;;;10.03;75.86;98414.70;106102;1274;99904;-66
2022/10/03 03:08:04;;;;;;;13.80;5.00;;;;;;;10.03;75.81;98415.23;106000;1274;113380;-65
2022/10/03 03:10:57;;;;;;;15.50;5.00;;;;;;;10.03;75.93;98409.88;106128;1274;100281;-66
2022/10/03 03:14:03;;;;;;;11.60;5.00;;;;;;;10.04;75.90;98403.67;106059;1274;108545;-65
2022/10/03 03:16:40;;;;;;;;;;;;;;;10.04;75.95;98403.65;105932;1275;99407;-65
2022/10/03 03:19:33;;;;;;;13.30;5.50;;;;;;;10.02;75.98;98398.86;106031;1274;99180;-64
2022/10/03 03:22:24;;;;;;;14.80;5.10;;;;;;;10.03;75.91;98400.88;106128;1274;113443;-65
2022/10/03 03:25:00;;;;;;;17.50;6.40;;;;;;;10.04;76.02;98397.61;106124;1274;99236;-64
2022/10/03 03:27:47;;;;;;;16.60;5.80;;;;;;;10.03;75.83;98399.64;106115;1274;108640;-66
2022/10/03 03:30:21;;;;;;;15.30;5.10;;;;;;;10.03;76.03;98392.39;105989;1274;99268;-68
2022/10/03 03:33:06;;;;;;;14.50;5.10;;;;;;;10.03;75.99;98399.77;106081;1274;99237;-65
2022/10/03 03:35:56;;;;;;;13.30;4.70;;;;;;;10.04;76.01;98389.33;106019;1274;113434;-64
2022/10/03 03:38:57;;;;;;;18.10;4.70;;;;;;;10.03;76.01;98394.70;105986;1274;99327;-65
2022/10/03 03:41:45;;;;;;;17.60;5.80;;;;;;;10.00;75.99;98391.95;106024;1274;108440;-63
2022/10/03 03:44:33;;;;;;;13.80;4.50;;;;;;;9.97;76.03;98385.91;106006;1274;99160;-64
2022/10/03 03:47:15;;;;;;;13.20;5.10;;;;;;;9.98;76.02;98396.46;106118;1274;96632;-63
2022/10/03 03:50:24;;;;;;;12.30;4.60;;;;;;;9.97;75.98;98387.06;106122;1274;112818;-64
2022/10/03 03:53:03;;;;;;;15.20;4.50;;;;;;;9.94;76.10;98385.66;106104;1273;99835;-65
2022/10/03 03:55:37;;;;;;;14.50;4.70;;;;;;;9.93;76.06;98384.16;106026;1273;127320;-64
2022/10/03 03:58:32;;;;;;;13.00;4.60;;;;;;;9.92;76.09;98378.05;106111;1273;100852;-63
2022/10/03 04:01:23;;;;;;;10.40;4.50;;;;;;;9.92;76.06;98383.70;106102;1273;99316;-64
2022/10/03 04:04:31;;;;;;;15.90;4.80;;;;;;;9.92;76.08;98384.23;106087;1274;113414;-62
2022/10/03 04:07:18;;;;;;;14.90;5.00;;;;;;;9.90;76.04;98383.70;106028;1274;99206;-68
2022/10/03 04:09:53;;;;;;;13.30;4.80;;;;;;;9.88;76.14;98381.20;106085;1273;107763;-64
2022/10/03 04:12:41;;;;;;;16.50;4.40;;;;;;;9.87;76.16;98382.84;106133;1274;99256;-67
2022/10/03 04:15:38;;;;;;;10.80;4.20;;;;;;;9.85;76.14;98380.75;105928;1274;99259;-66
2022/10/03 04:18:57;;;;;;;14.30;4.50;;;;;;;9.81;76.13;98379.61;106017;1274;113791;-65
2022/10/03 04:21:54;;;;;;;14.60;4.50;;;;;;;9.80;76.24;98380.89;106127;1274;99240;-67
2022/10/03 04:24:39;;;;;;;9.50;4.20;;;;;;;9.79;76.20;98381.86;106091;1276;108557;-67
2022/10/03 04:27:38;;;;;;;9.90;4.10;;;;;;;9.78;76.09;98375.79;106119;1274;99330;-64
2022/10/03 04:30:32;;;;;;;12.80;4.30;;;;;;;9.76;76.23;98376.30;106043;1273;97527;-65
2022/10/03 04:33:15;;;;;;;10.60;3.70;;;;;;;9.74;76.20;98381.25;106064;1274;113355;-66
2022/10/03 04:35:43;;;;;;;9.20;4.00;;;;;;;9.73;76.25;98377.58;106078;1274;100036;-67
2022/10/03 04:38:25;;;;;;;12.50;4.20;;;;;;;9.74;76.30;98376.25;106082;1274;108371;-66
2022/10/03 04:41:13;;;;;;;15.60;4.10;;;;;;;9.76;76.23;98384.48;106008;1274;99346;-66
2022/10/03 04:43:51;;;;;;;8.80;3.60;;;;;;;9.77;76.33;98386.31;106120;1274;99278;-68
2022/10/03 04:46:29;;;;;;;12.30;4.20;;;;;;;9.78;76.35;98380.07;105994;1276;112482;-65
2022/10/03 04:49:34;;;;;;;13.00;4.10;;;;;;;9.76;76.34;98382.86;106140;1274;99303;-65
2022/10/03 04:52:48;;;;;;;13.20;3.90;;;;;;;9.73;76.34;98377.05;106054;1274;108477;-64
2022/10/03 04:55:50;;;;;;;14.10;4.10;;;;;;;9.73;76.31;98383.83;105523;1282;99292;-66
2022/10/03 04:58:25;;;;;;;9.40;3.70;;;;;;;9.72;76.42;98375.95;105520;1282;99527;-67
2022/10/03 05:01:20;;;;;;;9.50;4.00;;;;;;;9.71;76.41;98375.99;105938;1273;113490;-67
2022/10/03 05:04:25;;;;;;;12.00;3.80;;;;;;;9.68;76.40;98372.64;106057;1274;97607;-67
2022/10/03 05:07:21;;;;;;;13.40;3.70;;;;;;;9.65;76.43;98371.67;106085;1274;108507;-66
2022/10/03 05:10:16;;;;;;;13.30;3.60;;;;;;;9.63;76.47;98373.24;105984;1273;99384;-67
2022/10/03 05:13:15;;;;;;;12.30;3.50;;;;;;;9.61;76.46;98371.43;106095;1273;99289;-68
2022/10/03 05:16:05;;;;;;;7.40;3.50;;;;;;;9.60;76.51;98371.90;106057;1274;112806;-67
2022/10/03 05:19:03;;;;;;;12.60;4.10;;;;;;;9.59;76.51;98374.43;105984;1274;96749;-67
2022/10/03 05:22:10;;;;;;;13.90;4.10;;;;;;;9.58;76.55;98359.56;105926;1274;108642;-67
2022/10/03 05:25:09;;;;;;;10.30;3.70;;;;;;;9.55;76.57;98357.61;105946;1274;99960;-68
2022/10/03 05:27:54;;;;;;;11.70;3.90;;;;;;;9.56;76.65;98352.27;105964;1274;99323;-65
2022/10/03 05:30:40;;;;;;;11.00;4.20;;;;;;;9.57;76.64;98350.95;106219;1273;112835;-65
2022/10/03 05:33:44;;;;;;;11.90;3.80;;;;;;;9.56;76.77;98352.73;106074;1274;96715;-68
2022/10/03 05:36:34;;;;;;;12.20;4.30;;;;;;;9.55;76.66;98349.97;105921;1274;108366;-66
2022/10/03 05:39:41;;;;;;;11.10;4.40;;;;;;;9.55;76.67;98351.60;105914;1274;99364;-65
2022/10/03 05:42:28;;;;;;;10.60;3.80;;;;;;;9.55;76.71;98359.90;105976;1274;99244;-66
2022/10/03 05:45:29;;;;;;;15.30;5.50;;;;;;;9.55;76.80;98362.71;106093;1274;112668;-67
2022/10/03 05:48:21;;;;;;;15.20;5.90;;;;;;;9.54;76.85;98362.98;106073;1274;96642;-66
2022/10/03 05:51:32;;;;;;;10.70;5.00;;;;;;;9.53;76.82;98359.51;106056;1273;108344;-66
2022/10/03 05:54:22;;;;;;;19.70;5.80;;;;;;;9.53;76.82;98356.83;106009;1273;99282;-65
2022/10/03 05:57:22;;;;;;;13.10;4.00;;;;;;;9.55;76.95;98353.91;105991;1273;98369;-66
2022/10/03 06:00:18;;;;;;;12.10;4.50;;;;;;;9.56;76.96;98355.93;105979;1273;112751;-66
2022/10/03 06:03:01;;;;;;;14.50;4.60;;;;;;;9.57;76.90;98354.41;106087;1273;99228;-66
2022/10/03 06:06:06;;;;;;;16.80;5.30;;;;;;;9.59;77.05;98352.36;106018;1273;109272;-65
2022/10/03 06:08:39;;;;;;;16.20;4.60;;;;;;;9.59;77.02;98350.92;105984;1273;99242;-67
2022/10/03 06:11:26;;;;;;;14.30;4.70;;;;;;;9.58;77.02;98350.98;105997;1273;97729;-67
2022/10/03 06:14:19;;;;;;;9.40;4.00;;;;;;;9.57;77.15;98349.80;105969;1274;113467;-66
2022/10/03 06:17:08;;;;;;;15.10;4.70;;;;;;;9.58;77.13;98345.50;105970;1274;97936;-67
2022/10/03 06:19:44;;;;;;;11.30;4.00;;;;;;;9.59;77.17;98351.62;105937;1274;108371;-66
2022/10/03 06:22:31;;;;;;;13.10;4.30;;;;;;;9.60;77.16;98349.74;106020;1274;99328;-67
2022/10/03 06:25:08;;;;;;;17.70;5.00;;;;;;;9.61;77.12;98351.11;106062;1273;99132;-67
2022/10/03 06:27:56;;;;;;;11.20;4.20;;;;;;;9.63;77.22;98354.50;105990;1274;113415;-67
2022/10/03 06:31:05;;;;;;;10.70;4.20;;;;;;;9.65;77.33;98360.00;106011;1273;99128;-67
2022/10/03 06:34:01;;;;;;;12.90;4.60;;;;;;;9.67;77.27;98359.28;106101;1274;108255;-69
2022/10/03 06:37:02;;;;;;;15.60;4.50;;;;;;;9.71;77.38;98369.63;106071;1273;99245;-66
2022/10/03 06:39:55;;;;;;;12.80;4.20;;;;;;;9.73;77.25;98372.25;106022;1274;97826;-68
2022/10/03 06:42:51;;;;;;;15.40;4.60;;;;;;;9.75;77.28;98371.05;106070;1273;113682;-66
2022/10/03 06:45:22;;;;;;;14.80;4.10;;;;;;;9.75;77.23;98364.70;106070;1274;99234;-66
2022/10/03 06:48:16;;;;;;;14.50;4.50;;;;;;;9.76;77.35;98366.41;106092;1273;108394;-66
2022/10/03 06:51:18;;;;;;;13.70;4.60;;;;;;;9.77;77.28;98365.44;105979;1273;98013;-65
2022/10/03 06:53:50;;;;;;;16.80;5.40;;;;;;;9.77;77.31;98364.88;106026;1274;99235;-65
2022/10/03 06:57:02;;;;;;;13.30;4.90;;;;;;;9.77;77.35;98369.16;106136;1273;112691;-66
2022/10/03 06:59:52;;;;;;;11.30;3.70;;;;;;;9.77;77.44;98371.29;106067;1274;99263;-66
2022/10/03 07:02:38;;;;;;;16.90;4.40;;;;;;;9.77;77.42;98370.01;105923;1274;108419;-65
2022/10/03 07:05:39;;;;;;;14.60;4.10;;;;;;;9.77;77.47;98364.89;105998;1273;99224;-65
2022/10/03 07:08:51;;;;;;;14.20;4.00;;;;;;;9.78;77.61;98377.41;105954;1273;99338;-67
2022/10/03 07:11:48;;;;;;;6.80;3.40;;;;;;;9.77;77.47;98370.20;105901;1276;113355;-67
2022/10/03 07:14:34;;;;;;;10.20;4.00;;;;;;;9.77;77.51;98363.80;106048;1274;99310;-67
2022/10/03 07:17:49;;;;;;;9.80;3.70;;;;;;;9.79;77.59;98363.11;106045;1273;108404;-65
2022/10/03 07:20:44;;;;;;;8.50;3.50;;;;;;;9.81;77.57;98360.99;106010;1274;100316;-66
2022/10/03 07:23:54;;;;;;;13.00;4.30;;;;;;;9.81;77.72;98357.79;106018;1274;99195;-67
2022/10/03 07:26:46;;;;;;;10.00;3.80;;;;;;;9.83;77.65;98366.14;105986;1273;114613;-66
2022/10/03 07:29:27;;;;;;;12.70;2.90;;;;;;;9.84;77.75;98367.31;105969;1274;99174;-66
2022/10/03 07:32:37;;;;;;;9.70;3.10;;;;;;;9.86;77.61;98367.90;106033;1274;107563;-66
2022/10/03 07:35:24;;;;;;;13.50;3.40;;;;;;;9.87;77.66;98373.50;106020;1274;99385;-66
2022/10/03 07:41:23;;;;;;;9.80;3.30;;;;;;;9.83;77.79;98366.84;106003;1273;113252;-66
2022/10/03 07:44:16;;;;;;;8.50;2.80;;;;;;;9.82;77.78;98366.79;106057;1273;99314;-67
2022/10/03 07:46:52;;;;;;;8.90;3.20;;;;;;;9.83;77.75;98361.94;106035;1274;110165;-67
2022/10/03 07:49:26;;;;;;;10.20;3.00;;;;;;;9.87;77.82;98368.73;105973;1273;99423;-67
2022/10/03 07:52:38;;;;;;;7.10;3.50;;;;;;;9.91;77.99;98369.29;106084;1273;99174;-70
2022/10/03 07:55:37;;;;;;;10.70;3.60;;;;;;;9.94;77.87;98369.52;106096;1273;112795;-67
2022/10/03 07:58:43;;;;;;;13.60;3.20;;;;;;;9.98;77.94;98372.41;106089;1273;96612;-66
2022/10/03 08:01:26;;;;;;;16.80;3.60;;;;;;;10.03;77.95;98372.50;106201;1274;108404;-68
2022/10/03 08:03:57;;;;;;;11.10;3.30;;;;;;;10.07;77.88;98375.20;105977;1273;99411;-66
2022/10/03 08:07:00;;;;;;;11.50;3.90;;;;;;;10.08;77.91;98376.34;106054;1273;96625;-67
2022/10/03 08:10:06;;;;;;;10.80;3.70;;;;;;;10.10;78.00;98381.20;106050;1273;113254;-67
2022/10/03 08:13:15;;;;;;;9.90;3.50;;;;;;;10.12;77.98;98381.39;106048;1274;99220;-69
2022/10/03 08:15:48;;;;;;;12.70;3.80;;;;;;;10.14;78.06;98382.10;106056;1274;108350;-68
2022/10/03 08:18:33;;;;;;;10.50;3.30;;;;;;;10.15;78.00;98385.36;106092;1274;99325;-68
2022/10/03 08:21:04;;;;;;;13.60;3.80;;;;;;;10.13;78.00;98386.29;106039;1274;99315;-69
2022/10/03 08:23:58;;;;;;;16.20;4.20;;;;;;;10.11;78.01;98387.95;105883;1274;113307;-67
2022/10/03 08:26:46;;;;;;;14.20;4.30;;;;;;;10.13;78.13;98388.39;106088;1274;97704;-68
2022/10/03 08:29:58;;;;;;;12.00;3.40;;;;;;;10.15;78.08;98396.20;105948;1273;108540;-67
2022/10/03 08:32:56;;;;;;;14.30;3.80;;;;;;;10.14;78.00;98390.94;105896;1274;99262;-66
2022/10/03 08:35:48;;;;;;;11.70;3.20;;;;;;;10.16;78.09;98389.95;106022;1273;99346;-66
2022/10/03 08:38:37;;;;;;;10.10;3.60;;;;;;;10.18;78.10;98392.77;106075;1274;111837;-66
2022/10/03 08:41:56;;;;;;;13.90;3.70;;;;;;;10.21;78.14;98389.31;106009;1274;99426;-67
2022/10/03 08:44:36;;;;;;;9.90;3.20;;;;;;;10.26;78.04;98394.57;105943;1274;108337;-66
2022/10/03 08:47:04;;;;;;;13.60;3.40;;;;;;;10.33;78.05;98387.10;106019;1274;99338;-67
2022/10/03 08:50:02;;;;;;;9.30;2.80;;;;;;;10.41;78.15;98389.13;106051;1273;99453;-68
2022/10/03 08:53:13;;;;;;;9.80;3.00;;;;;;;10.50;78.10;98390.04;106136;1274;112399;-69
2022/10/03 08:56:07;;;;;;;13.80;3.40;;;;;;;10.59;78.08;98392.27;106024;1274;99258;-67
2022/10/03 08:59:13;;;;;;;8.20;2.80;;;;;;;10.67;78.02;98388.04;105956;1274;108502;-68
2022/10/03 09:01:54;;;;;;;6.80;2.90;;;;;;;10.73;78.15;98393.09;105955;1274;96625;-68
2022/10/03 09:04:53;;;;;;;7.90;2.90;;;;;;;10.75;78.06;98392.54;105950;1275;96957;-66
2022/10/03 09:07:39;;;;;;;8.40;3.20;;;;;;;10.75;78.08;98382.64;105929;1274;113115;-65
2022/10/03 09:10:31;;;;;;;11.30;3.20;;;;;;;10.80;78.09;98384.63;105971;1272;98989;-67
2022/10/03 09:13:51;;;;;;;8.30;2.80;;;;;;;10.88;78.14;98379.05;105920;1274;108362;-65
2022/10/03 09:16:53;;;;;;;7.90;3.00;;;;;;;10.89;78.02;98380.73;105288;1274;99256;-66
2022/10/03 09:19:55;;;;;;;8.10;2.60;;;;;;;10.93;77.83;98382.36;106073;1273;99700;-69
2022/10/03 09:22:48;;;;;;;6.80;2.50;;;;;;;10.94;78.07;98375.84;106132;1273;112763;-66
2022/10/03 09:25:34;;;;;;;9.50;3.20;;;;;;;10.96;77.98;98383.63;105984;1273;99345;-67
2022/10/03 09:28:37;;;;;;;8.70;3.40;;;;;;;10.97;77.96;98380.39;105995;1274;106802;-67
2022/10/03 09:31:44;;;;;;;11.70;3.20;;;;;;;10.94;77.79;98380.42;105993;1273;99236;-66
2022/10/03 09:34:36;;;;;;;10.50;3.30;;;;;;;10.93;77.94;98379.17;106029;1273;99285;-65
2022/10/03 09:37:11;;;;;;;9.20;2.90;;;;;;;10.91;77.93;98381.84;106001;1273;113790;-67
2022/10/03 09:40:04;;;;;;;8.20;2.70;;;;;;;10.89;77.89;98382.72;106045;1274;99272;-67
2022/10/03 09:43:06;;;;;;;11.00;2.80;;;;;;;10.86;77.74;98375.28;106038;1274;108396;-66
2022/10/03 09:46:00;;;;;;;9.80;2.90;;;;;;;10.85;77.73;98376.59;106137;1274;99303;-67
2022/10/03 09:48:47;;;;;;;7.10;2.80;;;;;;;10.86;77.94;98376.30;105992;1274;99217;-67
2022/10/03 09:51:54;;;;;;;12.10;3.30;;;;;;;10.89;77.86;98374.20;106008;1273;113472;-65
2022/10/03 09:54:46;;;;;;;8.30;3.50;;;;;;;10.92;77.87;98369.13;106064;1273;97090;-68
2022/10/03 09:57:28;;;;;;;10.90;3.90;;;;;;;10.98;77.84;98368.45;106036;1274;108585;-68
2022/10/03 10:00:07;;;;;;;9.40;3.00;;;;;;;11.04;77.79;98366.34;106086;1273;99343;-67
2022/10/03 10:03:07;;;;;;;7.90;2.60;;;;;;;11.10;77.81;98368.64;106096;1274;99319;-67
2022/10/03 10:06:07;;;;;;;5.70;2.70;;;;;;;11.13;77.71;98367.36;106054;1275;112354;-68
2022/10/03 10:08:53;;;;;;;10.50;2.90;;;;;;;11.12;77.65;98373.80;106065;1273;99317;-67
2022/10/03 10:12:00;;;;;;;3.40;2.10;;;;;;;11.10;77.65;98378.08;106070;1274;108489;-67
2022/10/03 10:14:43;;;;;;;6.40;2.70;;;;;;;11.01;77.64;98372.27;105965;1274;99548;-65
2022/10/03 10:17:47;;;;;;;8.80;2.70;;;;;;;10.94;77.59;98374.05;105991;1273;96562;-67
2022/10/03 10:20:53;;;;;;;7.40;2.40;;;;;;;10.91;77.53;98367.61;106016;1273;113257;-66
2022/10/03 10:23:28;;;;;;;8.40;3.00;;;;;;;10.86;77.75;98368.73;106055;1273;99249;-65
2022/10/03 10:26:29;;;;;;;8.50;2.80;;;;;;;10.85;77.61;98365.80;105958;1273;108295;-72
2022/10/03 10:29:28;;;;;;;10.90;3.00;;;;;;;10.87;77.60;98364.88;105935;1273;98043;-65
2022/10/03 10:32:13;;;;;;;6.40;2.60;;;;;;;10.89;77.58;98364.91;106026;1273;99332;-66
2022/10/03 10:35:19;;;;;;;6.40;2.30;;;;;;;10.93;77.65;98370.48;105956;1273;113411;-64
2022/10/03 10:38:14;;;;;;;7.90;2.70;;;;;;;10.93;77.49;98372.22;106033;1273;98406;-67
2022/10/03 10:40:55;;;;;;;8.70;2.90;;;;;;;10.94;77.56;98370.60;105994;1273;107320;-68
2022/10/03 10:43:40;;;;;;;8.20;2.50;;;;;;;10.96;77.58;98368.29;105939;1273;99330;-67
2022/10/03 10:46:16;;;;;;;7.80;2.50;;;;;;;10.98;77.54;98375.92;105929;1273;99252;-68
2022/10/03 10:49:29;;;;;;;4.70;2.20;;;;;;;10.94;77.55;98373.93;105912;1273;113259;-67
2022/10/03 10:52:15;;;;;;;7.40;2.40;;;;;;;10.89;77.45;98368.66;105938;1273;98546;-65
2022/10/03 10:55:25;;;;;;;6.60;2.50;;;;;;;10.84;77.39;98370.50;105955;1273;108588;-67
2022/10/03 10:58:31;;;;;;;8.80;3.10;;;;;;;10.81;77.57;98367.02;106024;1273;99221;-67
2022/10/03 11:01:39;;;;;;;10.90;2.50;;;;;;;10.79;77.57;98373.20;106014;1274;99240;-66
2022/10/03 11:04:48;;;;;;;6.10;2.50;;;;;;;10.72;77.43;98374.55;105975;1273;112711;-67
2022/10/03 11:07:19;;;;;;;9.20;2.30;;;;;;;10.65;77.51;98370.45;105931;1274;97981;-66
2022/10/03 11:10:25;;;;;;;8.80;2.50;;;;;;;10.61;77.46;98375.13;106001;1273;108483;-67
2022/10/03 11:13:31;;;;;;;6.20;2.40;;;;;;;10.57;77.51;98374.84;106021;1273;99250;-65
2022/10/03 11:16:34;;;;;;;14.80;3.40;;;;;;;10.57;77.48;98372.08;106034;1273;100676;-67
2022/10/03 11:19:25;;;;;;;6.40;2.70;;;;;;;10.55;77.52;98372.56;106047;1273;112797;-67
2022/10/03 11:22:16;;;;;;;6.80;2.40;;;;;;;10.53;77.43;98375.02;106060;1274;99696;-66
2022/10/03 11:25:07;;;;;;;12.10;2.90;;;;;;;10.50;77.46;98371.52;106053;1273;108425;-66
2022/10/03 11:27:57;;;;;;;7.30;2.70;;;;;;;10.55;77.52;98374.66;106086;1273;99217;-67
2022/10/03 11:30:59;;;;;;;11.20;3.30;;;;;;;10.62;77.50;98381.24;106173;1273;99210;-68
2022/10/03 11:33:55;;;;;;;7.40;3.00;;;;;;;10.66;77.57;98372.36;106034;1273;112855;-65
2022/10/03 11:36:32;;;;;;;7.70;2.90;;;;;;;10.70;77.57;98379.49;105984;1274;97961;-67
2022/10/03 11:39:01;;;;;;;6.00;2.40;;;;;;;10.71;77.44;98373.85;106062;1273;108158;-67
2022/10/03 11:42:02;;;;;;;6.50;2.60;;;;;;;10.78;77.61;98384.48;106140;1273;99249;-67
2022/10/03 11:44:58;;;;;;;9.50;3.40;;;;;;;10.88;77.56;98378.47;106044;1273;99311;-66
2022/10/03 11:47:54;;;;;;;6.70;3.10;;;;;;;10.95;77.61;98376.10;106070;1273;113440;-67
2022/10/03 11:50:40;;;;;;;7.80;2.90;;;;;;;10.98;77.67;98380.28;105982;1273;96628;-66
2022/10/03 11:53:18;;;;;;;4.50;2.70;;;;;;;10.99;77.56;98376.31;105976;1273;108889;-67
2022/10/03 11:55:53;;;;;;;6.30;2.80;;;;;;;10.96;77.55;98370.05;105984;1273;99434;-65
2022/10/03 11:58:33;;;;;;;9.20;3.00;;;;;;;10.95;77.60;98369.04;106103;1273;99296;-64
2022/10/03 12:01:25;;;;;;;8.00;2.80;;;;;;;10.94;77.39;98365.89;105956;1273;112457;-67
2022/10/03 12:04:12;;;;;;;8.90;3.00;;;;;;;11.02;77.73;98375.55;105922;1273;99306;-66
2022/10/03 12:10:02;;;;;;;5.60;2.60;;;;;;;11.27;77.65;98358.17;105942;1274;99259;-66
2022/10/03 12:12:48;;;;;;;7.60;2.90;;;;;;;11.36;77.61;98359.48;106001;1274;99258;-66
2022/10/03 12:15:35;;;;;;;8.00;3.10;;;;;;;11.44;77.58;98357.56;106034;1273;113528;-66
2022/10/03 12:18:17;;;;;;;6.30;2.80;;;;;;;11.48;77.63;98367.48;106058;1273;99239;-66
2022/10/03 12:21:02;;;;;;;7.50;3.30;;;;;;;11.49;77.47;98364.57;106020;1273;107862;-67
2022/10/03 12:24:00;;;;;;;8.10;2.60;;;;;;;11.46;77.45;98362.33;106037;1273;99096;-67
2022/10/03 12:26:51;;;;;;;7.60;3.10;;;;;;;11.50;77.53;98370.52;106082;1273;99203;-66
2022/10/03 12:29:25;;;;;;;7.10;2.70;;;;;;;11.57;77.51;98375.39;106035;1273;112680;-64
2022/10/03 12:32:18;;;;;;;8.00;2.90;;;;;;;11.61;77.48;98376.70;106046;1274;97828;-66
2022/10/03 12:34:59;;;;;;;7.50;3.30;;;;;;;11.63;77.52;98372.43;106010;1273;108463;-66
2022/10/03 12:37:33;;;;;;;8.70;3.00;;;;;;;11.62;77.44;98374.48;106096;1273;99235;-67
2022/10/03 12:40:11;;;;;;;6.60;2.70;;;;;;;11.60;77.45;98376.73;106078;1273;99343;-66
2022/10/03 12:42:59;;;;;;;5.00;2.60;;;;;;;11.58;77.44;98377.45;106039;1274;113774;-69
2022/10/03 12:45:57;;;;;;;8.50;2.70;;;;;;;11.57;77.36;98372.81;106015;1273;99340;-66
2022/10/03 12:49:06;;;;;;;12.20;3.10;;;;;;;11.55;77.44;98385.00;105980;1273;108441;-66
2022/10/03 12:52:00;;;;;;;9.20;3.60;;;;;;;11.54;77.30;98390.27;105731;1281;99374;-66
2022/10/03 12:55:19;;;;;;;7.00;2.80;;;;;;;11.51;77.28;98394.95;106031;1274;99203;-66
2022/10/03 12:58:17;;;;;;;6.00;2.40;;;;;;;11.46;77.23;98391.33;106027;1274;113346;-67
2022/10/03 13:01:22;;;;;;;7.20;2.80;;;;;;;11.42;77.22;98390.61;105908;1273;97595;-68
2022/10/03 13:04:32;;;;;;;9.60;3.20;;;;;;;11.40;77.27;98391.15;105834;1273;108190;-67
2022/10/03 13:07:18;;;;;;;10.10;3.80;;;;;;;11.39;77.21;98394.25;105911;1273;99217;-67
2022/10/03 13:10:03;;;;;;;8.80;3.40;;;;;;;11.40;77.09;98397.20;106047;1274;99186;-66
2022/10/03 13:12:39;;;;;;;7.60;3.50;;;;;;;11.40;77.04;98403.36;105945;1274;112881;-68
2022/10/03 13:15:41;;;;;;;10.50;3.50;;;;;;;11.39;77.07;98402.23;105966;1273;99406;-68
2022/10/03 13:18:41;;;;;;;9.40;3.80;;;;;;;11.37;76.96;98409.49;106005;1273;105441;-68
2022/10/03 13:21:14;;;;;;;11.60;4.10;;;;;;;11.33;77.12;98417.59;106084;1273;99947;-65